Adak, AK (99546)

3:45 AM HADT on July 26, 2014 (GMT -0900)
Adak (PADK) Elev 13 ft | 51.88 °N, 176.65 °W | Change Station

Current weather conditions updated 9 minutes ago

Overcast
Overcast
46 °F
Feels Like 46 °F
N
0
Wind Variable Wind from North

Today is forecast to be nearly the same temperature as yesterday.

Today
High -- | Low -- °F
--% Chance of Precip.
Yesterday
High -- | Low -- °F
Precip. -- in
7:00 AM 10:44 PM
Waning Crescent, 0% visible
Pressure 30.29 in
Visibility 10.0 miles
Clouds Overcast 700 ft
Dew Point 43 °F
Humidity 87%
Rainfall 0.00 in
Snow Depth Not available.
UV 0 out of 12
Pollen Not available.
Air Quality Not available.
Flu Activity Not available.
METAR PADK 261236Z 00000KT 10SM OVC007 08/06 A3029 RMK AO1

More Conditions Fewer Conditions

Pressure 30.29 in
Visibility 10.0 miles
Clouds Overcast 700 ft
Dew Point 43 °F
Humidity 87%
Rainfall 0.00 in
Snow Depth Not available.
UV 0 out of 12
Pollen Not available.
Air Quality Not available.
Flu Activity Not available.
METAR PADK 261236Z 00000KT 10SM OVC007 08/06 A3029 RMK AO1

More Conditions Fewer Conditions

10-Day Weather Forecast

Almanac

Astronomy

Jul. 26, 2014 Rise Set
Actual Time 7:00 AM HADT 10:44 PM HADT
Civil Twilight 6:17 AM HADT 11:27 PM HADT
Nautical Twilight 5:18 AM HADT 12:25 AM HADT
Astronomical Twilight 3:40 AM HADT 1:59 AM HADT
Moon 7:16 AM HADT 10:14 PM HADT
Length of Visible Light 17h 09m
Length of Day
15h 44m
Tomorrow will be 2m 58s shorter.
Waning Crescent, 0% of the Moon is Illuminated
Today
Waning Crescent
Jul 26
New
Aug 3
First Quarter
Aug 10
Full
Aug 17
Last Quarter

Today's Extremes

State Highs State Lows

Community

WunderPhotos

Upload Photos

1,737,558 photos uploaded!

Nearby

Snow Depth

Station Depth Elevation
Rocky Point 1 in 500 ft
Port Graham 0 in 300 ft
Mcneil Canyon 1 in 1320 ft
MF Bradley River 125 in 2300 ft
Cooper Lake 2 in 1200 ft

Earthquake Activity

City Distance Mag. Time & Date
No recent earthquake activity has been reported nearby.
Minimum magnitude displayed is 2.5.

Coastal Water Temperatures

Place Temperature
No Stations Reporting

Nearby Weather Stations

There are no personal weather stations in this area.